Time;durP1;ratioP1;P1;durP2;ratioP2;P2;SDS_P1;SDS_P2;PMS_P1;PMS_P2;Temp;Humidity;BMP_temperature;BMP_pressure;BME280_temperature;BME280_humidity;BME280_pressure;Samples;Min_cycle;Max_cycle;Signal;HPM_P1;HPM_P2
2021/06/04 00:01:04;;;;;;;19.10;17.10;;;18.20;99.90;;;;;;5016653;28;20193;-89
2021/06/04 00:03:30;;;;;;;18.33;16.10;;;18.20;99.90;;;;;;5019454;28;20236;-88
2021/06/04 00:05:57;;;;;;;17.35;15.32;;;18.30;99.90;;;;;;5019278;28;20189;-88
2021/06/04 00:08:24;;;;;;;15.90;14.38;;;18.20;99.90;;;;;;5019069;28;20248;-88
2021/06/04 00:10:53;;;;;;;18.17;16.27;;;18.20;99.90;;;;;;5019762;28;20189;-87
2021/06/04 00:13:26;;;;;;;17.63;15.88;;;18.20;99.90;;;;;;5016165;28;20202;-88
2021/06/04 00:15:56;;;;;;;14.30;12.90;;;18.10;99.90;;;;;;5015915;28;20190;-87
2021/06/04 00:18:24;;;;;;;16.70;14.50;;;18.10;99.90;;;;;;5015388;28;20731;-87
2021/06/04 00:20:51;;;;;;;15.73;14.20;;;18.10;99.90;;;;;;5015334;28;20221;-87
2021/06/04 00:23:18;;;;;;;17.38;15.63;;;18.10;99.90;;;;;;5015183;28;20200;-87
2021/06/04 00:25:45;;;;;;;17.38;15.68;;;18.10;99.90;;;;;;5014865;28;20232;-87
2021/06/04 00:28:11;;;;;;;16.58;14.98;;;18.10;99.90;;;;;;5017188;28;20227;-88
2021/06/04 00:30:38;;;;;;;19.17;15.68;;;18.10;99.90;;;;;;5016866;28;20197;-87
2021/06/04 00:33:05;;;;;;;19.20;17.30;;;18.10;99.90;;;;;;5016063;28;20212;-87
2021/06/04 00:35:35;;;;;;;20.17;17.98;;;18.10;99.90;;;;;;5016482;28;20197;-88
2021/06/04 00:38:02;;;;;;;20.80;18.45;;;18.20;99.90;;;;;;5016578;28;20250;-88
2021/06/04 00:40:32;;;;;;;21.73;17.88;;;18.20;99.90;;;;;;5020145;28;20200;-88
2021/06/04 00:42:59;;;;;;;23.92;19.90;;;18.20;99.90;;;;;;5037017;28;20227;-87
2021/06/04 00:45:28;;;;;;;24.35;21.75;;;18.20;99.90;;;;;;5038151;28;20220;-88
2021/06/04 00:47:54;;;;;;;23.20;20.23;;;18.20;99.90;;;;;;5038384;28;20241;-88
2021/06/04 00:50:27;;;;;;;20.30;18.13;;;18.20;99.90;;;;;;5021203;28;20200;-89
2021/06/04 00:52:56;;;;;;;21.75;19.45;;;18.20;99.90;;;;;;5015282;28;20346;-88
2021/06/04 00:55:24;;;;;;;23.20;20.67;;;18.20;99.90;;;;;;5015023;28;20224;-88
2021/06/04 00:57:51;;;;;;;22.80;19.42;;;18.10;99.90;;;;;;5016003;28;20645;-88
2021/06/04 01:00:26;;;;;;;24.35;19.33;;;18.10;99.90;;;;;;5015265;28;20208;-88
2021/06/04 01:02:53;;;;;;;21.90;19.35;;;18.10;99.90;;;;;;5015289;28;20196;-88
2021/06/04 01:05:20;;;;;;;26.60;20.42;;;18.20;99.90;;;;;;5015052;28;20196;-88
2021/06/04 01:08:05;;;;;;;22.13;19.27;;;18.20;99.90;;;;;;5015360;28;20256;-88
2021/06/04 01:10:43;;;;;;;25.63;22.40;;;18.20;99.90;;;;;;5015540;28;20200;-88
2021/06/04 01:13:18;;;;;;;23.85;21.35;;;18.20;99.90;;;;;;5017635;28;20193;-88
2021/06/04 01:15:56;;;;;;;23.77;21.15;;;18.20;99.90;;;;;;5017210;28;20196;-88
2021/06/04 01:18:37;;;;;;;29.45;21.05;;;18.20;99.90;;;;;;5015727;28;20185;-88
2021/06/04 01:21:07;;;;;;;25.58;22.75;;;18.20;99.90;;;;;;5014869;28;20554;-88
2021/06/04 01:23:52;;;;;;;24.98;22.27;;;18.20;99.90;;;;;;5015284;28;20537;-87
2021/06/04 01:26:25;;;;;;;27.23;22.80;;;18.20;99.90;;;;;;5014385;28;20185;-88
2021/06/04 01:28:56;;;;;;;26.13;21.58;;;18.20;99.90;;;;;;5014285;28;20193;-87
2021/06/04 01:31:26;;;;;;;26.27;22.98;;;18.20;99.90;;;;;;5013916;28;20247;-87
2021/06/04 01:33:56;;;;;;;24.92;22.23;;;18.30;99.90;;;;;;5014425;28;20287;-87
2021/06/04 01:36:27;;;;;;;24.95;21.67;;;18.20;99.90;;;;;;5014685;28;20193;-88
2021/06/04 01:38:56;;;;;;;23.52;21.17;;;18.20;99.90;;;;;;5014935;28;20201;-87
2021/06/04 01:41:28;;;;;;;25.00;22.17;;;18.20;99.90;;;;;;5014448;28;20186;-87
2021/06/04 01:43:58;;;;;;;24.55;22.10;;;18.30;99.90;;;;;;5014723;28;20216;-87
2021/06/04 01:46:28;;;;;;;26.95;23.08;;;18.30;99.90;;;;;;5013895;28;20196;-87
2021/06/04 01:48:58;;;;;;;26.70;23.35;;;18.30;99.90;;;;;;5013783;28;20197;-87
2021/06/04 01:51:28;;;;;;;28.25;25.25;;;18.20;99.90;;;;;;5014073;28;20189;-87
2021/06/04 01:53:58;;;;;;;25.77;23.02;;;18.20;99.90;;;;;;5014192;28;20629;-87
2021/06/04 01:56:29;;;;;;;26.33;23.63;;;18.20;99.90;;;;;;5014012;28;20185;-87
2021/06/04 01:58:59;;;;;;;29.73;26.77;;;18.20;99.90;;;;;;5014077;28;20197;-87
2021/06/04 02:01:29;;;;;;;29.90;24.63;;;18.20;99.90;;;;;;5015169;28;20185;-87
2021/06/04 02:03:55;;;;;;;27.85;24.85;;;18.20;99.90;;;;;;5017680;28;20186;-88
2021/06/04 02:06:22;;;;;;;36.72;26.27;;;18.20;99.90;;;;;;5017668;28;20196;-87
2021/06/04 02:08:52;;;;;;;28.65;24.13;;;18.20;99.90;;;;;;5017173;28;20312;-88
2021/06/04 02:11:21;;;;;;;29.33;26.23;;;18.20;99.90;;;;;;5017690;28;20192;-87
2021/06/04 02:13:50;;;;;;;30.50;27.40;;;18.20;99.90;;;;;;5018005;28;20649;-87
2021/06/04 02:16:36;;;;;;;29.00;25.88;;;18.20;99.90;;;;;;5017080;28;20185;-87
2021/06/04 02:19:10;;;;;;;29.38;26.42;;;18.30;99.90;;;;;;5017438;28;20206;-87
2021/06/04 02:21:44;;;;;;;30.85;27.08;;;18.30;99.90;;;;;;5017934;28;20189;-87
2021/06/04 02:24:17;;;;;;;31.05;27.60;;;18.30;99.90;;;;;;5017265;28;20232;-88
2021/06/04 02:26:49;;;;;;;34.35;30.40;;;18.30;99.90;;;;;;5016982;28;20194;-88
2021/06/04 02:29:21;;;;;;;31.65;28.20;;;18.20;99.90;;;;;;5017334;28;20200;-87
2021/06/04 02:31:52;;;;;;;34.22;29.80;;;18.20;99.90;;;;;;5021811;28;20201;-87
2021/06/04 02:34:22;;;;;;;31.88;28.00;;;18.20;99.90;;;;;;5017836;28;20197;-87
2021/06/04 02:36:53;;;;;;;33.00;29.58;;;18.20;99.90;;;;;;5024846;28;20276;-88
2021/06/04 02:39:24;;;;;;;34.90;28.48;;;18.20;99.90;;;;;;5023119;28;20200;-87
2021/06/04 02:41:56;;;;;;;30.63;27.00;;;18.20;99.90;;;;;;5017356;28;20189;-87
2021/06/04 02:44:27;;;;;;;32.67;29.10;;;18.20;99.90;;;;;;5017471;28;20193;-87
2021/06/04 02:46:59;;;;;;;30.75;27.55;;;18.20;99.90;;;;;;5029674;28;20205;-86
2021/06/04 02:49:28;;;;;;;31.98;28.80;;;18.20;99.90;;;;;;5025297;28;20207;-87
2021/06/04 02:51:58;;;;;;;31.00;26.92;;;18.10;99.90;;;;;;5017083;28;20189;-87
2021/06/04 02:54:29;;;;;;;32.25;28.30;;;18.10;99.90;;;;;;5016802;28;20194;-87
2021/06/04 02:56:57;;;;;;;35.88;29.30;;;18.10;99.90;;;;;;5016961;28;20193;-87
2021/06/04 02:59:28;;;;;;;35.85;31.85;;;18.20;99.90;;;;;;5016998;28;20276;-87
2021/06/04 03:01:57;;;;;;;34.72;27.80;;;18.20;99.90;;;;;;5016945;28;20205;-87
2021/06/04 03:04:24;;;;;;;34.60;29.38;;;18.20;99.90;;;;;;5019020;28;20196;-87
2021/06/04 03:06:54;;;;;;;34.20;29.88;;;18.20;99.90;;;;;;5016379;28;20203;-87
2021/06/04 03:09:26;;;;;;;34.15;30.73;;;18.20;99.90;;;;;;5016849;28;20189;-87
2021/06/04 03:11:56;;;;;;;35.88;32.28;;;18.20;99.90;;;;;;5016413;28;20552;-87
2021/06/04 03:14:24;;;;;;;34.75;30.42;;;18.20;99.90;;;;;;5016023;28;20205;-87
2021/06/04 03:16:52;;;;;;;34.33;30.55;;;18.20;99.90;;;;;;5017173;28;20190;-88
2021/06/04 03:19:19;;;;;;;36.28;31.83;;;18.20;99.90;;;;;;5015767;28;20193;-87
2021/06/04 03:21:49;;;;;;;33.78;30.17;;;18.30;99.90;;;;;;5015729;28;20197;-88
2021/06/04 03:24:24;;;;;;;35.58;31.83;;;18.30;99.90;;;;;;5015749;28;20217;-87
2021/06/04 03:26:51;;;;;;;32.75;29.25;;;18.20;99.90;;;;;;5015934;28;20193;-88
2021/06/04 03:29:19;;;;;;;31.27;28.05;;;18.30;99.90;;;;;;5015745;28;20665;-87
2021/06/04 03:31:50;;;;;;;35.50;31.05;;;18.30;99.90;;;;;;5015556;28;20193;-87
2021/06/04 03:34:17;;;;;;;33.50;30.30;;;18.30;99.90;;;;;;5015419;28;20193;-87
2021/06/04 03:36:46;;;;;;;34.95;29.05;;;18.20;99.90;;;;;;5015351;28;20193;-88
2021/06/04 03:39:14;;;;;;;31.15;28.02;;;18.20;99.90;;;;;;5015421;28;20236;-87
2021/06/04 03:41:42;;;;;;;36.85;30.55;;;18.20;99.90;;;;;;5015139;28;20638;-88
2021/06/04 03:44:12;;;;;;;41.13;31.40;;;18.20;99.90;;;;;;5015181;28;20209;-88
2021/06/04 03:46:39;;;;;;;35.20;31.38;;;18.20;99.90;;;;;;5015296;28;20199;-87
2021/06/04 03:49:08;;;;;;;32.50;29.10;;;18.20;99.90;;;;;;5015032;28;20262;-88
2021/06/04 03:51:37;;;;;;;31.92;28.50;;;18.10;99.90;;;;;;5015130;28;20553;-87
2021/06/04 03:54:06;;;;;;;36.03;30.00;;;18.20;99.90;;;;;;5015292;28;20189;-88
2021/06/04 03:56:33;;;;;;;31.02;27.75;;;18.20;99.90;;;;;;5015202;28;20629;-87
2021/06/04 03:59:00;;;;;;;35.00;28.10;;;18.20;99.90;;;;;;5015214;28;20196;-87
2021/06/04 04:01:29;;;;;;;30.13;27.02;;;18.20;99.90;;;;;;5015043;28;20190;-87
2021/06/04 04:03:55;;;;;;;35.85;31.45;;;18.20;99.90;;;;;;5014943;28;20235;-87
2021/06/04 04:06:23;;;;;;;31.65;28.05;;;18.20;99.90;;;;;;5014840;28;20634;-87
2021/06/04 04:08:50;;;;;;;32.30;28.92;;;18.20;99.90;;;;;;5014710;28;20224;-88
2021/06/04 04:11:16;;;;;;;33.63;29.40;;;18.30;99.90;;;;;;5014877;28;20198;-88
2021/06/04 04:13:43;;;;;;;35.45;29.88;;;18.30;99.90;;;;;;5014981;28;20189;-88
2021/06/04 04:16:09;;;;;;;32.50;29.33;;;18.30;99.90;;;;;;5014584;28;20280;-87
2021/06/04 04:18:36;;;;;;;37.50;30.42;;;18.30;99.90;;;;;;5014567;28;20544;-87
2021/06/04 04:21:05;;;;;;;36.10;32.03;;;18.30;99.90;;;;;;5014651;28;20645;-87
2021/06/04 04:23:36;;;;;;;38.88;32.55;;;18.40;99.90;;;;;;5014380;28;20196;-88
2021/06/04 04:26:04;;;;;;;33.72;28.92;;;18.40;99.90;;;;;;5014374;28;20193;-87
2021/06/04 04:28:33;;;;;;;37.40;32.72;;;18.50;99.90;;;;;;5014267;28;20225;-87
2021/06/04 04:31:00;;;;;;;49.33;34.55;;;18.50;99.90;;;;;;5014585;28;20215;-87
2021/06/04 04:33:27;;;;;;;38.88;34.78;;;18.50;99.90;;;;;;5014382;28;20557;-87
2021/06/04 04:35:54;;;;;;;41.20;36.40;;;18.60;99.90;;;;;;5014222;28;20193;-87
2021/06/04 04:38:21;;;;;;;41.42;36.28;;;18.60;99.90;;;;;;5014145;28;20204;-87
2021/06/04 04:40:50;;;;;;;41.42;35.38;;;18.70;99.90;;;;;;5014237;28;20531;-87
2021/06/04 04:43:18;;;;;;;39.60;35.13;;;18.70;99.90;;;;;;5014266;28;20215;-87
2021/06/04 04:45:44;;;;;;;42.15;32.90;;;18.70;99.90;;;;;;5014042;28;20192;-87
2021/06/04 04:48:12;;;;;;;39.50;35.10;;;18.70;99.90;;;;;;5013987;28;20306;-87
2021/06/04 04:50:39;;;;;;;38.60;34.63;;;18.70;99.90;;;;;;5014117;28;20261;-87
2021/06/04 04:53:06;;;;;;;39.65;35.08;;;18.80;99.90;;;;;;5014079;28;20193;-86
2021/06/04 04:55:34;;;;;;;37.88;33.75;;;18.80;99.90;;;;;;5014049;28;20593;-87
2021/06/04 04:58:03;;;;;;;37.30;32.20;;;18.80;99.90;;;;;;5013852;28;20190;-87
2021/06/04 05:00:30;;;;;;;39.15;34.88;;;18.80;99.90;;;;;;5013806;28;20192;-85
2021/06/04 05:02:58;;;;;;;39.97;35.67;;;18.80;99.90;;;;;;5013942;28;20616;-84
2021/06/04 05:05:27;;;;;;;39.72;33.90;;;18.80;99.90;;;;;;5013589;28;20530;-84
2021/06/04 05:07:54;;;;;;;35.03;31.00;;;18.80;99.90;;;;;;5013592;28;20221;-84
2021/06/04 05:10:21;;;;;;;38.45;34.42;;;18.80;99.90;;;;;;5013498;28;20186;-85
2021/06/04 05:12:47;;;;;;;38.15;31.27;;;18.80;99.90;;;;;;5013443;28;20193;-86
2021/06/04 05:15:18;;;;;;;38.13;33.60;;;18.90;99.90;;;;;;5013507;28;20190;-84
2021/06/04 05:17:46;;;;;;;38.08;30.52;;;18.90;99.90;;;;;;5013814;28;20189;-84
2021/06/04 05:20:13;;;;;;;37.90;32.97;;;18.90;99.90;;;;;;5013374;28;20193;-84
2021/06/04 05:22:40;;;;;;;37.50;32.10;;;19.00;99.90;;;;;;5013303;28;20193;-84
2021/06/04 05:25:10;;;;;;;37.80;32.65;;;19.00;99.90;;;;;;5013406;28;20229;-86
2021/06/04 05:27:37;;;;;;;36.15;32.25;;;19.10;99.90;;;;;;5015077;28;20566;-87
2021/06/04 05:30:06;;;;;;;39.10;33.42;;;19.20;99.90;;;;;;5015614;28;20190;-87
2021/06/04 05:32:33;;;;;;;37.47;31.42;;;19.30;99.90;;;;;;5014166;28;20199;-87
2021/06/04 05:35:00;;;;;;;38.83;32.45;;;19.40;99.90;;;;;;5014566;28;20186;-87
2021/06/04 05:37:26;;;;;;;35.85;31.35;;;19.50;99.90;;;;;;5014194;28;20205;-87
2021/06/04 05:39:52;;;;;;;37.30;32.03;;;19.70;99.90;;;;;;5017761;28;20280;-87
2021/06/04 05:42:19;;;;;;;34.17;29.88;;;19.80;99.90;;;;;;5027178;28;20194;-87
2021/06/04 05:44:47;;;;;;;30.95;27.08;;;19.90;99.90;;;;;;5018425;28;20190;-90
2021/06/04 05:47:14;;;;;;;35.17;29.00;;;20.00;99.90;;;;;;5013740;28;20201;-89
2021/06/04 05:49:43;;;;;;;30.83;27.52;;;20.10;99.90;;;;;;5015045;28;20208;-86
2021/06/04 05:52:11;;;;;;;30.25;27.05;;;20.20;99.90;;;;;;5017322;28;20189;-86
2021/06/04 05:54:39;;;;;;;29.40;26.40;;;20.30;99.90;;;;;;5028721;28;20266;-86
2021/06/04 05:57:06;;;;;;;27.48;24.77;;;20.30;99.90;;;;;;5030601;28;20277;-86
2021/06/04 05:59:33;;;;;;;27.45;24.55;;;20.40;99.90;;;;;;5028149;28;20190;-86
2021/06/04 06:01:59;;;;;;;32.50;26.67;;;20.40;99.90;;;;;;5016906;28;20208;-86
2021/06/04 06:04:26;;;;;;;26.70;23.90;;;20.30;99.90;;;;;;5016377;28;20193;-86
2021/06/04 06:06:54;;;;;;;28.10;25.27;;;20.30;99.90;;;;;;5015799;28;20193;-86
2021/06/04 06:09:21;;;;;;;32.72;25.02;;;20.30;99.90;;;;;;5034057;28;20177;-86
2021/06/04 06:11:47;;;;;;;29.05;26.02;;;20.30;99.90;;;;;;5037957;28;20189;-84
2021/06/04 06:14:15;;;;;;;34.33;26.30;;;20.30;99.90;;;;;;5037970;28;20197;-86
2021/06/04 06:16:42;;;;;;;28.58;25.55;;;20.30;99.90;;;;;;5029877;28;20189;-86
2021/06/04 06:19:14;;;;;;;35.22;26.85;;;20.30;99.90;;;;;;5013476;28;20189;-86
2021/06/04 06:21:43;;;;;;;31.40;27.38;;;20.40;99.90;;;;;;5013284;28;20199;-86
2021/06/04 06:24:11;;;;;;;32.67;29.35;;;20.50;99.90;;;;;;5012925;28;20641;-86
2021/06/04 06:26:38;;;;;;;36.25;32.40;;;20.50;99.90;;;;;;5013065;28;20189;-85
2021/06/04 06:29:06;;;;;;;33.78;30.17;;;20.50;99.90;;;;;;5013218;28;20700;-86
2021/06/04 06:31:36;;;;;;;54.35;37.53;;;20.60;99.90;;;;;;5012979;28;20200;-86
2021/06/04 06:34:03;;;;;;;37.92;34.00;;;20.60;99.90;;;;;;5013196;28;20651;-86
2021/06/04 06:36:32;;;;;;;43.45;36.03;;;20.80;99.90;;;;;;5013015;28;20190;-86
2021/06/04 06:39:01;;;;;;;36.65;33.03;;;21.00;99.90;;;;;;5013249;28;20284;-86
2021/06/04 06:41:30;;;;;;;40.95;36.20;;;21.30;99.90;;;;;;5013024;28;20193;-86
2021/06/04 06:43:56;;;;;;;48.92;42.42;;;21.40;99.90;;;;;;5013144;28;20190;-86
2021/06/04 06:46:26;;;;;;;43.17;38.60;;;21.60;99.90;;;;;;5012841;28;20658;-87
2021/06/04 06:48:54;;;;;;;47.00;41.88;;;21.80;99.90;;;;;;5014836;28;20213;-86
2021/06/04 06:51:20;;;;;;;46.65;41.72;;;22.00;99.90;;;;;;5016204;28;20213;-86
2021/06/04 06:53:47;;;;;;;40.45;35.90;;;22.20;99.90;;;;;;5016769;28;20201;-87
2021/06/04 06:56:16;;;;;;;42.85;38.33;;;22.50;99.90;;;;;;5016157;28;20549;-86
2021/06/04 06:58:44;;;;;;;42.25;35.65;;;22.80;99.90;;;;;;5016302;28;20666;-86
2021/06/04 07:01:11;;;;;;;43.72;39.15;;;23.00;99.90;;;;;;5016564;28;20368;-87
2021/06/04 07:03:42;;;;;;;41.95;37.17;;;23.10;99.90;;;;;;5016305;28;20197;-87
2021/06/04 07:06:12;;;;;;;42.75;38.25;;;23.00;99.90;;;;;;5017555;28;20190;-87
2021/06/04 07:08:38;;;;;;;41.05;36.58;;;23.10;99.90;;;;;;5016434;28;20213;-87
2021/06/04 07:11:05;;;;;;;40.92;36.45;;;23.00;99.90;;;;;;5016590;28;20197;-87
2021/06/04 07:13:32;;;;;;;41.90;37.60;;;23.00;99.90;;;;;;5016117;28;20215;-87
2021/06/04 07:16:02;;;;;;;42.13;37.22;;;22.80;99.90;;;;;;5015872;28;20197;-87
2021/06/04 07:18:29;;;;;;;43.22;37.65;;;22.80;99.90;;;;;;5015931;28;20193;-87
2021/06/04 07:20:57;;;;;;;46.50;41.63;;;22.90;99.90;;;;;;5015750;28;20580;-87
2021/06/04 07:23:25;;;;;;;41.88;36.97;;;22.90;99.90;;;;;;5015888;28;20186;-86
2021/06/04 07:25:53;;;;;;;42.03;37.03;;;22.90;99.90;;;;;;5015776;28;20201;-86
2021/06/04 07:28:22;;;;;;;41.67;36.03;;;22.80;99.90;;;;;;5015699;28;20568;-87
2021/06/04 07:30:51;;;;;;;44.65;38.20;;;22.70;99.90;;;;;;5016250;28;20192;-86
2021/06/04 07:33:22;;;;;;;44.47;39.67;;;22.50;99.90;;;;;;5015694;28;20200;-87
2021/06/04 07:35:51;;;;;;;44.20;38.90;;;22.40;99.90;;;;;;5015828;28;20189;-86
2021/06/04 07:38:17;;;;;;;49.13;40.78;;;22.20;99.90;;;;;;5015419;28;20204;-86
2021/06/04 07:40:44;;;;;;;45.45;36.78;;;22.10;99.90;;;;;;5015315;28;20192;-86
2021/06/04 07:43:15;;;;;;;43.97;36.75;;;22.00;99.90;;;;;;5015438;28;20196;-86
2021/06/04 07:45:43;;;;;;;44.90;36.60;;;22.10;99.90;;;;;;5015770;28;20193;-87
2021/06/04 07:48:13;;;;;;;41.65;35.97;;;22.20;99.90;;;;;;5015322;28;20221;-86
2021/06/04 07:50:41;;;;;;;50.65;40.83;;;22.20;99.90;;;;;;5015271;28;20189;-86
2021/06/04 07:53:08;;;;;;;45.33;40.40;;;22.30;99.90;;;;;;5015928;28;20549;-87
2021/06/04 07:55:35;;;;;;;47.40;37.38;;;22.30;99.90;;;;;;5015399;28;20272;-88
2021/06/04 07:58:01;;;;;;;41.83;37.35;;;22.20;99.90;;;;;;5015566;28;20192;-87
2021/06/04 08:00:30;;;;;;;41.05;36.78;;;22.30;99.90;;;;;;5015176;28;20553;-87
2021/06/04 08:02:59;;;;;;;38.13;32.10;;;22.50;99.90;;;;;;5015365;28;20224;-87
2021/06/04 08:05:26;;;;;;;43.97;36.55;;;22.60;99.90;;;;;;5015213;28;20285;-87
2021/06/04 08:07:54;;;;;;;43.03;38.22;;;22.70;99.90;;;;;;5015126;28;20209;-88
2021/06/04 08:10:21;;;;;;;43.28;38.58;;;22.70;99.90;;;;;;5016919;28;20186;-87
2021/06/04 08:12:47;;;;;;;50.63;41.70;;;22.80;99.90;;;;;;5015432;28;20197;-87
2021/06/04 08:15:17;;;;;;;41.97;37.03;;;22.70;99.90;;;;;;5014870;28;20189;-88
2021/06/04 08:17:45;;;;;;;49.67;38.17;;;22.70;99.90;;;;;;5014624;28;20263;-87
2021/06/04 08:20:14;;;;;;;43.50;38.83;;;22.60;99.90;;;;;;5014666;28;20656;-86
2021/06/04 08:22:43;;;;;;;48.25;38.15;;;22.70;99.90;;;;;;5014548;28;20205;-85
2021/06/04 08:25:13;;;;;;;45.95;38.45;;;22.90;99.90;;;;;;5014227;28;20348;-87
2021/06/04 08:27:40;;;;;;;45.22;38.45;;;23.10;99.90;;;;;;5014320;28;20220;-87
2021/06/04 08:30:09;;;;;;;44.92;39.72;;;23.10;99.90;;;;;;5014513;28;20200;-85
2021/06/04 08:32:35;;;;;;;46.22;38.78;;;23.00;99.90;;;;;;5014284;28;20194;-86
2021/06/04 08:35:04;;;;;;;42.92;38.25;;;22.90;99.90;;;;;;5014334;28;20541;-85
2021/06/04 08:37:30;;;;;;;48.85;40.78;;;22.90;99.90;;;;;;5014089;28;20251;-85
2021/06/04 08:39:56;;;;;;;43.13;38.58;;;23.00;99.90;;;;;;5014274;28;20190;-85
2021/06/04 08:42:31;;;;;;;47.50;41.40;;;23.10;99.90;;;;;;5014284;28;20189;-87
2021/06/04 08:45:17;;;;;;;56.08;40.63;;;23.40;99.90;;;;;;5014224;28;20184;-87
2021/06/04 08:47:49;;;;;;;44.05;39.30;;;23.40;99.90;;;;;;5015629;28;20677;-87
2021/06/04 08:50:25;;;;;;;42.15;37.40;;;23.40;99.90;;;;;;5016462;28;20549;-85
2021/06/04 08:52:59;;;;;;;40.70;35.03;;;23.60;99.90;;;;;;5014716;28;20196;-86
2021/06/04 08:55:33;;;;;;;41.22;34.33;;;23.80;99.90;;;;;;5014255;28;20188;-86
2021/06/04 08:58:12;;;;;;;40.13;35.33;;;23.90;99.90;;;;;;5014082;28;20204;-86
2021/06/04 09:00:43;;;;;;;41.03;35.80;;;23.90;99.90;;;;;;5013749;28;20190;-86
2021/06/04 09:03:19;;;;;;;40.22;35.55;;;24.10;99.90;;;;;;5013911;28;20185;-85
2021/06/04 09:05:49;;;;;;;41.80;35.97;;;24.40;99.90;;;;;;5013920;28;20216;-85
2021/06/04 09:08:18;;;;;;;38.22;34.38;;;24.70;99.90;;;;;;5013826;28;20212;-87
2021/06/04 09:10:50;;;;;;;36.50;32.83;;;25.10;99.90;;;;;;5013640;28;20201;-85
2021/06/04 09:13:20;;;;;;;33.10;29.67;;;25.40;99.90;;;;;;5015992;28;20592;-85
2021/06/04 09:15:47;;;;;;;35.17;31.53;;;25.60;99.90;;;;;;5016598;28;20442;-85
2021/06/04 09:18:17;;;;;;;33.43;30.03;;;25.50;99.90;;;;;;5014806;28;20889;-86
2021/06/04 09:20:53;;;;;;;31.20;28.17;;;25.50;99.90;;;;;;5014462;28;20432;-86
2021/06/04 09:23:24;;;;;;;34.50;31.10;;;25.50;99.90;;;;;;5014442;28;20822;-86
2021/06/04 09:25:51;;;;;;;28.90;25.20;;;25.60;99.90;;;;;;5014074;28;20548;-86
2021/06/04 09:28:25;;;;;;;26.87;24.27;;;25.60;99.90;;;;;;5013745;28;20506;-85
2021/06/04 09:30:53;;;;;;;29.10;26.10;;;25.40;99.90;;;;;;5013584;28;20435;-86
2021/06/04 09:33:25;;;;;;;28.37;25.63;;;25.20;99.90;;;;;;5014381;28;20436;-87
2021/06/04 09:36:02;;;;;;;30.38;27.08;;;25.20;99.90;;;;;;5013435;28;20453;-86
2021/06/04 09:38:32;;;;;;;25.40;22.67;;;24.80;99.90;;;;;;5013634;28;20588;-86
2021/06/04 09:41:26;;;;;;;25.08;22.55;;;24.60;99.90;;;;;;5013353;28;20218;-86
2021/06/04 09:44:09;;;;;;;24.40;21.92;;;24.80;99.90;;;;;;5013592;28;20203;-84
2021/06/04 09:46:40;;;;;;;24.35;21.95;;;24.90;99.90;;;;;;5013205;28;20200;-84
2021/06/04 09:49:07;;;;;;;22.27;19.90;;;25.10;99.90;;;;;;5013339;28;20230;-86
2021/06/04 09:51:35;;;;;;;20.33;18.43;;;25.40;99.90;;;;;;5013215;28;20935;-84
2021/06/04 09:54:19;;;;;;;22.77;19.50;;;25.80;99.90;;;;;;5013231;28;20436;-84
2021/06/04 09:56:46;;;;;;;29.53;26.60;;;25.90;99.90;;;;;;5013583;28;20498;-84
2021/06/04 09:59:15;;;;;;;27.60;24.90;;;26.10;99.90;;;;;;5013563;28;20444;-84
2021/06/04 10:01:46;;;;;;;25.07;22.67;;;26.20;99.90;;;;;;5013367;28;20440;-84
2021/06/04 10:04:16;;;;;;;24.33;21.83;;;26.20;99.90;;;;;;5013216;28;20531;-84
2021/06/04 10:06:45;;;;;;;28.07;25.20;;;26.10;99.90;;;;;;5014752;28;20800;-84
2021/06/04 10:09:27;;;;;;;21.20;19.07;;;26.00;99.90;;;;;;5020140;28;20602;-84
2021/06/04 10:11:58;;;;;;;17.57;15.77;;;26.00;99.90;;;;;;5020120;28;20490;-84
2021/06/04 10:14:47;;;;;;;17.53;15.80;;;25.90;99.90;;;;;;5019845;28;20436;-84
2021/06/04 10:17:42;;;;;;;17.77;15.83;;;25.80;99.90;;;;;;5012970;28;20438;-85
2021/06/04 10:20:31;;;;;;;13.00;11.47;;;25.90;99.90;;;;;;5013230;28;20437;-84
2021/06/04 10:23:06;;;;;;;17.03;15.43;;;26.00;99.90;;;;;;5015779;28;20474;-84
2021/06/04 10:25:42;;;;;;;19.07;17.17;;;26.20;99.90;;;;;;5016598;28;21025;-84
2021/06/04 10:28:32;;;;;;;26.17;23.77;;;26.50;99.90;;;;;;5016622;28;20967;-84
2021/06/04 10:31:04;;;;;;;24.53;21.30;;;26.70;99.90;;;;;;5016555;28;20940;-84
2021/06/04 10:33:38;;;;;;;24.97;21.73;;;26.80;99.90;;;;;;5016452;28;20436;-84
2021/06/04 10:36:09;;;;;;;23.53;21.17;;;27.10;99.90;;;;;;5016402;28;20428;-85
2021/06/04 10:38:38;;;;;;;24.60;22.10;;;27.50;99.90;;;;;;5016492;28;20436;-84
2021/06/04 10:41:11;;;;;;;25.47;23.07;;;27.60;99.90;;;;;;5016319;28;20432;-85
2021/06/04 10:43:51;;;;;;;23.13;20.83;;;27.60;99.90;;;;;;5016350;28;20440;-85
2021/06/04 10:46:23;;;;;;;20.83;18.87;;;27.70;99.90;;;;;;5016433;28;20562;-84
2021/06/04 10:49:02;;;;;;;21.67;19.50;;;28.00;99.90;;;;;;5015938;28;20480;-84
2021/06/04 10:51:34;;;;;;;24.20;21.80;;;28.40;99.90;;;;;;5016304;28;20432;-85
2021/06/04 10:54:12;;;;;;;22.37;20.17;;;28.60;99.90;;;;;;5016194;28;20441;-84
2021/06/04 10:56:43;;;;;;;19.70;17.80;;;28.80;99.90;;;;;;5016361;28;20447;-84
2021/06/04 10:59:18;;;;;;;22.77;20.57;;;29.20;99.90;;;;;;5016330;28;20535;-86
2021/06/04 11:01:52;;;;;;;20.67;18.80;;;29.40;99.90;;;;;;5016218;28;20785;-86
2021/06/04 11:04:25;;;;;;;20.67;18.87;;;29.40;99.90;;;;;;5015972;28;20938;-86
2021/06/04 11:07:06;;;;;;;23.20;19.50;;;29.40;99.90;;;;;;4998451;28;20448;-86
2021/06/04 11:09:55;;;;;;;18.57;16.73;;;29.30;99.90;;;;;;5015861;28;20504;-86
2021/06/04 11:12:45;;;;;;;21.50;19.17;;;29.40;99.90;;;;;;5015913;28;20443;-85
2021/06/04 11:15:21;;;;;;;21.73;19.63;;;29.60;99.90;;;;;;5015926;28;20936;-86
2021/06/04 11:17:56;;;;;;;15.63;14.20;;;29.50;99.90;;;;;;5015635;28;20443;-86
2021/06/04 11:20:26;;;;;;;13.30;11.80;;;29.20;99.90;;;;;;5015602;28;20997;-86
2021/06/04 11:23:02;;;;;;;18.03;16.43;;;29.00;99.90;;;;;;5015730;28;20947;-86
2021/06/04 11:25:38;;;;;;;19.63;17.47;;;28.80;99.90;;;;;;5015460;28;20474;-86
2021/06/04 11:28:14;;;;;;;20.27;18.23;;;28.80;99.90;;;;;;5015555;28;20467;-85
2021/06/04 11:30:40;;;;;;;20.20;18.20;;;28.90;99.90;;;;;;5016184;28;20454;-86
2021/06/04 11:33:20;;;;;;;17.87;16.17;;;29.10;99.90;;;;;;5015337;28;20444;-86
2021/06/04 11:35:50;;;;;;;17.70;15.97;;;29.40;99.90;;;;;;5017715;28;20459;-85
2021/06/04 11:38:25;;;;;;;16.13;14.63;;;29.80;99.90;;;;;;5037065;28;20604;-86
2021/06/04 11:40:54;;;;;;;16.33;14.63;;;30.10;99.90;;;;;;5023591;28;20466;-85
2021/06/04 11:43:25;;;;;;;15.80;14.30;;;30.80;99.90;;;;;;5038311;28;20471;-85
2021/06/04 11:46:13;;;;;;;13.40;12.10;;;31.40;99.90;;;;;;5026215;28;20436;-86
2021/06/04 11:48:42;;;;;;;15.60;14.00;;;32.30;99.90;;;;;;5015912;28;20480;-86
2021/06/04 11:51:39;;;;;;;15.57;13.97;;;32.90;99.90;;;;;;5015635;28;20448;-86
2021/06/04 11:54:39;;;;;;;14.53;13.23;;;33.20;99.90;;;;;;5015597;28;20498;-86
2021/06/04 11:57:11;;;;;;;19.43;15.63;;;33.10;99.90;;;;;;5019386;28;20527;-85
2021/06/04 11:59:58;;;;;;;18.97;17.33;;;32.80;99.90;;;;;;5018989;28;20447;-86
2021/06/04 12:02:37;;;;;;;16.87;15.37;;;32.70;99.90;;;;;;5015084;28;20446;-86
2021/06/04 12:05:34;;;;;;;16.00;14.63;;;33.30;99.90;;;;;;5014911;28;20436;-85
2021/06/04 12:08:33;;;;;;;13.93;12.73;;;34.10;99.90;;;;;;5014664;28;20475;-87
2021/06/04 12:11:29;;;;;;;15.23;13.83;;;35.20;99.90;;;;;;5014844;28;20447;-85
2021/06/04 12:14:18;;;;;;;14.87;13.43;;;36.20;99.90;;;;;;5014691;28;20603;-85
2021/06/04 12:16:47;;;;;;;18.63;15.03;;;36.10;99.90;;;;;;5015006;28;20444;-86
2021/06/04 12:19:31;;;;;;;15.63;14.23;;;35.10;99.90;;;;;;5014793;28;20433;-86
2021/06/04 12:22:36;;;;;;;15.67;14.27;;;34.10;99.90;;;;;;5015138;28;20435;-86
2021/06/04 12:25:09;;;;;;;20.27;13.63;;;33.10;99.90;;;;;;5014636;28;20507;-86
2021/06/04 12:27:57;;;;;;;15.63;14.07;;;32.40;99.90;;;;;;5014543;28;20478;-86
2021/06/04 12:30:53;;;;;;;17.77;16.17;;;31.70;99.90;;;;;;5014321;28;20448;-87
2021/06/04 12:33:40;;;;;;;18.93;15.90;;;31.50;99.90;;;;;;5014434;28;20769;-86
2021/06/04 12:36:55;;;;;;;17.90;16.20;;;31.80;99.90;;;;;;5014240;28;20932;-86
2021/06/04 12:39:41;;;;;;;15.80;14.23;;;32.80;99.90;;;;;;5014133;28;20440;-86
2021/06/04 12:42:14;;;;;;;20.00;16.20;;;34.50;99.90;;;;;;5014604;28;20441;-87
2021/06/04 12:44:51;;;;;;;15.50;14.20;;;35.50;99.90;;;;;;5014368;28;20451;-86
2021/06/04 12:47:22;;;;;;;15.43;14.13;;;36.30;99.90;;;;;;5014176;28;20448;-87
2021/06/04 12:49:48;;;;;;;15.67;14.27;;;36.80;99.90;;;;;;5014433;28;20565;-86